首页
METAR-TAF:

METAR-TAF

机场 :

山胡桃, 北卡罗来纳州, 美国

纬度: 35-44-32N, 经度: 081-22-56W, 海拔: 362米

当前天气观测

该预报发布于21分钟前的13:53 UTC
静风
温度 -3°C
湿度 100%
气压 1023 hPa
能見度: 0.4公里
冻雾

METAR: KHKY 111353Z 00000KT 1/4SM FZFG VV001 M03/M03 A3021 RMK AO2 SLP230 T10331033

时间: 09:14 (14:14 UTC)

预报

该预报发布于57分钟前的13:17 UTC
预报有效从11日的 13点(UTC)到 12日的 12点(UTC)
风速2节,风向多变
能見度: 6.4公里
少量云层高于200英尺
轻雾
短暂存在
从 11日的 13点(UTC)到 11日的 14点(UTC)
能見度: 0.4公里
多云层高于200英尺
冻雾
从 11日的 1400点(UTC)
风速2节,风向多变
能見度: 10公里
散云层高于25000英尺
从 11日的 1800点(UTC)
风速5节,风向西
能見度: 10公里
天空无云
从 12日的 0000点(UTC)
风速3节,风向西转西北
能見度: 10公里
少量云层高于25000英尺

TAF: KHKY 111317Z 1113/1212 VRB02KT 4SM BR FEW002 TEMPO 1113/1114 1/4SM FZFG BKN002 FM111400 VRB02KT P6SM SCT250 FM111800 26005KT P6SM SKC FM120000 29003KT P6SM FEW250

超过4000个机场的气象观测和天气预报(METAR&TAF报告)。

可查询的气象台以黄色和红色小点在地图上表示。

将鼠标移到小点上方,可查看气象台名称。

然后点击查看天气观测和预报。

如需切换地图:点击带黑十字的绿色按钮放大地图;点击带横线的绿色按钮缩小地图;或者点击绿色箭头查看邻近地区的地图。


METAR-TAF: